sensor_id;sensor_type;location;lat;lon;timestamp;pressure;altitude;pressure_sealevel;temperature;humidity
21760;BME280;11041;50.854;20.580;2023-03-13T00:01:44;98311.84;;;1.85;65.42
21760;BME280;11041;50.854;20.580;2023-03-13T00:04:11;98299.66;;;1.87;62.89
21760;BME280;11041;50.854;20.580;2023-03-13T00:06:39;98300.22;;;1.89;62.22
21760;BME280;11041;50.854;20.580;2023-03-13T00:09:10;98299.97;;;1.91;63.51
21760;BME280;11041;50.854;20.580;2023-03-13T00:11:37;98289.66;;;1.98;62.55
21760;BME280;11041;50.854;20.580;2023-03-13T00:14:05;98275.81;;;1.95;63.83
21760;BME280;11041;50.854;20.580;2023-03-13T00:16:33;98267.72;;;2.00;62.72
21760;BME280;11041;50.854;20.580;2023-03-13T00:19:00;98269.59;;;1.99;63.62
21760;BME280;11041;50.854;20.580;2023-03-13T00:21:28;98259.31;;;1.96;63.60
21760;BME280;11041;50.854;20.580;2023-03-13T00:23:56;98266.09;;;2.04;63.70
21760;BME280;11041;50.854;20.580;2023-03-13T00:26:26;98262.00;;;2.01;62.86
21760;BME280;11041;50.854;20.580;2023-03-13T00:28:53;98257.44;;;2.07;63.40
21760;BME280;11041;50.854;20.580;2023-03-13T00:31:27;98256.34;;;2.08;63.27
21760;BME280;11041;50.854;20.580;2023-03-13T00:33:58;98249.81;;;2.14;63.13
21760;BME280;11041;50.854;20.580;2023-03-13T00:36:29;98239.53;;;2.06;63.26
21760;BME280;11041;50.854;20.580;2023-03-13T00:38:56;98253.06;;;2.11;62.68
21760;BME280;11041;50.854;20.580;2023-03-13T00:41:29;98229.22;;;2.08;62.87
21760;BME280;11041;50.854;20.580;2023-03-13T00:43:58;98229.75;;;2.15;62.66
21760;BME280;11041;50.854;20.580;2023-03-13T00:46:28;98231.38;;;2.16;63.14
21760;BME280;11041;50.854;20.580;2023-03-13T00:48:56;98231.69;;;2.09;63.79
21760;BME280;11041;50.854;20.580;2023-03-13T00:51:24;98230.84;;;2.09;64.39
21760;BME280;11041;50.854;20.580;2023-03-13T00:53:52;98225.41;;;2.09;66.30
21760;BME280;11041;50.854;20.580;2023-03-13T00:56:20;98234.66;;;2.08;67.73
21760;BME280;11041;50.854;20.580;2023-03-13T00:58:49;98236.81;;;2.06;71.17
21760;BME280;11041;50.854;20.580;2023-03-13T01:01:18;98244.16;;;2.00;72.46
21760;BME280;11041;50.854;20.580;2023-03-13T01:04:02;98230.31;;;1.86;73.23
21760;BME280;11041;50.854;20.580;2023-03-13T01:06:32;98236.00;;;1.85;75.46
21760;BME280;11041;50.854;20.580;2023-03-13T01:09:01;98237.91;;;1.79;77.02
21760;BME280;11041;50.854;20.580;2023-03-13T01:11:32;98232.75;;;1.73;78.23
21760;BME280;11041;50.854;20.580;2023-03-13T01:14:13;98224.06;;;1.55;79.78
21760;BME280;11041;50.854;20.580;2023-03-13T01:16:41;98228.69;;;1.49;80.75
21760;BME280;11041;50.854;20.580;2023-03-13T01:19:11;98220.00;;;1.47;81.32
21760;BME280;11041;50.854;20.580;2023-03-13T01:21:39;98219.47;;;1.40;82.13
21760;BME280;11041;50.854;20.580;2023-03-13T01:24:06;98219.72;;;1.39;83.28
21760;BME280;11041;50.854;20.580;2023-03-13T01:26:33;98218.66;;;1.40;84.65
21760;BME280;11041;50.854;20.580;2023-03-13T01:28:59;98223.50;;;1.33;84.77
21760;BME280;11041;50.854;20.580;2023-03-13T01:31:31;98214.00;;;1.25;85.59
21760;BME280;11041;50.854;20.580;2023-03-13T01:34:00;98216.44;;;1.26;85.86
21760;BME280;11041;50.854;20.580;2023-03-13T01:36:28;98211.84;;;1.22;86.26
21760;BME280;11041;50.854;20.580;2023-03-13T01:38:58;98203.72;;;1.22;86.42
21760;BME280;11041;50.854;20.580;2023-03-13T01:41:26;98217.00;;;1.28;86.65
21760;BME280;11041;50.854;20.580;2023-03-13T01:43:54;98211.03;;;1.32;87.45
21760;BME280;11041;50.854;20.580;2023-03-13T01:46:24;98210.50;;;1.35;88.47
21760;BME280;11041;50.854;20.580;2023-03-13T01:49:11;98210.78;;;1.38;89.22
21760;BME280;11041;50.854;20.580;2023-03-13T01:51:53;98208.06;;;1.28;89.05
21760;BME280;11041;50.854;20.580;2023-03-13T01:57:35;98195.28;;;1.08;90.18
21760;BME280;11041;50.854;20.580;2023-03-13T02:00:14;98205.59;;;1.11;90.48
21760;BME280;11041;50.854;20.580;2023-03-13T02:02:50;98207.44;;;1.00;90.37
21760;BME280;11041;50.854;20.580;2023-03-13T02:05:22;98212.06;;;1.05;90.79
21760;BME280;11041;50.854;20.580;2023-03-13T02:08:03;98217.22;;;1.06;91.12
21760;BME280;11041;50.854;20.580;2023-03-13T02:10:39;98210.44;;;1.04;91.10
21760;BME280;11041;50.854;20.580;2023-03-13T02:13:09;98195.28;;;0.98;91.25
21760;BME280;11041;50.854;20.580;2023-03-13T02:15:40;98209.66;;;1.09;91.20
21760;BME280;11041;50.854;20.580;2023-03-13T02:18:07;98199.91;;;1.13;91.54
21760;BME280;11041;50.854;20.580;2023-03-13T02:20:34;98196.13;;;1.09;91.56
21760;BME280;11041;50.854;20.580;2023-03-13T02:23:23;98210.72;;;1.08;91.90
21760;BME280;11041;50.854;20.580;2023-03-13T02:25:52;98202.59;;;1.08;92.06
21760;BME280;11041;50.854;20.580;2023-03-13T02:28:26;98198.28;;;1.06;91.91
21760;BME280;11041;50.854;20.580;2023-03-13T02:30:55;98200.69;;;1.08;92.08
21760;BME280;11041;50.854;20.580;2023-03-13T02:33:29;98203.69;;;1.12;92.27
21760;BME280;11041;50.854;20.580;2023-03-13T02:35:58;98206.97;;;1.14;92.43
21760;BME280;11041;50.854;20.580;2023-03-13T02:38:30;98210.47;;;1.14;92.33
21760;BME280;11041;50.854;20.580;2023-03-13T02:41:00;98204.78;;;1.11;92.31
21760;BME280;11041;50.854;20.580;2023-03-13T02:43:34;98222.66;;;1.12;92.57
21760;BME280;11041;50.854;20.580;2023-03-13T02:46:16;98235.38;;;1.11;92.69
21760;BME280;11041;50.854;20.580;2023-03-13T02:48:49;98224.78;;;1.04;92.58
21760;BME280;11041;50.854;20.580;2023-03-13T02:51:38;98239.69;;;1.12;92.75
21760;BME280;11041;50.854;20.580;2023-03-13T02:54:16;98234.00;;;1.09;93.07
21760;BME280;11041;50.854;20.580;2023-03-13T02:56:48;98230.47;;;1.08;93.04
21760;BME280;11041;50.854;20.580;2023-03-13T02:59:16;98229.94;;;1.06;93.19
21760;BME280;11041;50.854;20.580;2023-03-13T03:01:43;98210.72;;;1.08;93.31
21760;BME280;11041;50.854;20.580;2023-03-13T03:04:10;98226.41;;;1.11;93.22
21760;BME280;11041;50.854;20.580;2023-03-13T03:06:36;98225.59;;;1.10;93.23
21760;BME280;11041;50.854;20.580;2023-03-13T03:09:04;98242.13;;;1.03;93.37
21760;BME280;11041;50.854;20.580;2023-03-13T03:11:30;98229.94;;;1.06;93.47
21760;BME280;11041;50.854;20.580;2023-03-13T03:13:56;98228.59;;;1.09;93.64
21760;BME280;11041;50.854;20.580;2023-03-13T03:16:23;98222.34;;;1.08;93.84
21760;BME280;11041;50.854;20.580;2023-03-13T03:18:49;98224.53;;;1.11;93.76
21760;BME280;11041;50.854;20.580;2023-03-13T03:21:16;98224.81;;;1.10;94.14
21760;BME280;11041;50.854;20.580;2023-03-13T03:23:43;98225.34;;;1.06;94.17
21760;BME280;11041;50.854;20.580;2023-03-13T03:26:09;98241.59;;;1.17;94.26
21760;BME280;11041;50.854;20.580;2023-03-13T03:28:35;98239.19;;;1.20;94.15
21760;BME280;11041;50.854;20.580;2023-03-13T03:31:08;98233.72;;;1.10;93.89
21760;BME280;11041;50.854;20.580;2023-03-13T03:33:36;98229.66;;;1.13;94.23
21760;BME280;11041;50.854;20.580;2023-03-13T03:36:10;98229.66;;;1.02;94.70
21760;BME280;11041;50.854;20.580;2023-03-13T03:38:39;98249.13;;;0.99;95.47
21760;BME280;11041;50.854;20.580;2023-03-13T03:41:07;98227.16;;;0.91;95.57
21760;BME280;11041;50.854;20.580;2023-03-13T03:43:34;98234.25;;;0.97;95.94
21760;BME280;11041;50.854;20.580;2023-03-13T03:46:01;98224.78;;;1.04;95.72
21760;BME280;11041;50.854;20.580;2023-03-13T03:48:28;98214.22;;;1.03;95.65
21760;BME280;11041;50.854;20.580;2023-03-13T03:50:55;98223.44;;;1.12;95.53
21760;BME280;11041;50.854;20.580;2023-03-13T03:53:21;98222.66;;;1.12;95.28
21760;BME280;11041;50.854;20.580;2023-03-13T03:55:48;98229.13;;;1.11;95.30
21760;BME280;11041;50.854;20.580;2023-03-13T03:58:15;98222.09;;;1.15;95.13
21760;BME280;11041;50.854;20.580;2023-03-13T04:00:46;98215.06;;;1.14;94.84
21760;BME280;11041;50.854;20.580;2023-03-13T04:03:14;98220.75;;;1.17;94.97
21760;BME280;11041;50.854;20.580;2023-03-13T04:05:40;98218.34;;;1.16;94.70
21760;BME280;11041;50.854;20.580;2023-03-13T04:08:07;98227.25;;;1.16;95.02
21760;BME280;11041;50.854;20.580;2023-03-13T04:10:34;98212.09;;;1.15;94.96
21760;BME280;11041;50.854;20.580;2023-03-13T04:13:01;98228.63;;;1.24;94.93
21760;BME280;11041;50.854;20.580;2023-03-13T04:15:28;98224.00;;;1.19;94.73
21760;BME280;11041;50.854;20.580;2023-03-13T04:17:54;98219.38;;;1.04;95.03
21760;BME280;11041;50.854;20.580;2023-03-13T04:20:21;98220.75;;;1.07;95.14
21760;BME280;11041;50.854;20.580;2023-03-13T04:22:47;98219.94;;;1.06;95.34
21760;BME280;11041;50.854;20.580;2023-03-13T04:25:14;98226.16;;;1.17;95.55
21760;BME280;11041;50.854;20.580;2023-03-13T04:27:40;98222.97;;;1.25;95.57
21760;BME280;11041;50.854;20.580;2023-03-13T04:30:09;98216.69;;;1.20;94.97
21760;BME280;11041;50.854;20.580;2023-03-13T04:32:35;98228.38;;;1.31;95.18
21760;BME280;11041;50.854;20.580;2023-03-13T04:35:02;98218.91;;;1.23;94.92
21760;BME280;11041;50.854;20.580;2023-03-13T04:37:29;98219.69;;;1.23;94.84
21760;BME280;11041;50.854;20.580;2023-03-13T04:39:55;98233.22;;;1.23;95.04
21760;BME280;11041;50.854;20.580;2023-03-13T04:42:22;98208.06;;;1.23;95.08
21760;BME280;11041;50.854;20.580;2023-03-13T04:44:48;98219.72;;;1.34;95.28
21760;BME280;11041;50.854;20.580;2023-03-13T04:47:15;98212.13;;;1.31;94.94
21760;BME280;11041;50.854;20.580;2023-03-13T04:49:41;98215.66;;;1.31;94.85
21760;BME280;11041;50.854;20.580;2023-03-13T04:52:08;98220.00;;;1.37;94.93
21760;BME280;11041;50.854;20.580;2023-03-13T04:54:34;98209.97;;;1.38;94.96
21760;BME280;11041;50.854;20.580;2023-03-13T04:57:00;98202.41;;;1.40;94.85
21760;BME280;11041;50.854;20.580;2023-03-13T04:59:27;98219.72;;;1.44;94.80
21760;BME280;11041;50.854;20.580;2023-03-13T05:01:54;98211.88;;;1.42;94.87
21760;BME280;11041;50.854;20.580;2023-03-13T05:04:20;98220.28;;;1.46;95.08
21760;BME280;11041;50.854;20.580;2023-03-13T05:06:47;98217.31;;;1.47;95.03
21760;BME280;11041;50.854;20.580;2023-03-13T05:09:13;98211.88;;;1.47;94.86
21760;BME280;11041;50.854;20.580;2023-03-13T05:11:40;98214.59;;;1.58;94.91
21760;BME280;11041;50.854;20.580;2023-03-13T05:14:08;98217.06;;;1.54;94.49
21760;BME280;11041;50.854;20.580;2023-03-13T05:16:38;98204.56;;;1.53;94.83
21760;BME280;11041;50.854;20.580;2023-03-13T05:19:04;98207.56;;;1.62;95.00
21760;BME280;11041;50.854;20.580;2023-03-13T05:21:31;98200.25;;;1.62;95.00
21760;BME280;11041;50.854;20.580;2023-03-13T05:23:57;98207.56;;;1.67;94.91
21760;BME280;11041;50.854;20.580;2023-03-13T05:26:24;98198.91;;;1.60;94.40
21760;BME280;11041;50.854;20.580;2023-03-13T05:28:50;98197.28;;;1.69;94.79
21760;BME280;11041;50.854;20.580;2023-03-13T05:31:17;98194.28;;;1.70;94.81
21760;BME280;11041;50.854;20.580;2023-03-13T05:33:43;98205.41;;;1.74;94.54
21760;BME280;11041;50.854;20.580;2023-03-13T05:36:10;98197.00;;;1.70;95.04
21760;BME280;11041;50.854;20.580;2023-03-13T05:38:36;98213.53;;;1.79;95.17
21760;BME280;11041;50.854;20.580;2023-03-13T05:41:03;98201.59;;;1.80;95.04
21760;BME280;11041;50.854;20.580;2023-03-13T05:43:29;98212.44;;;1.90;95.08
21760;BME280;11041;50.854;20.580;2023-03-13T05:45:56;98200.81;;;1.95;95.18
21760;BME280;11041;50.854;20.580;2023-03-13T05:48:23;98199.44;;;1.92;95.21
21760;BME280;11041;50.854;20.580;2023-03-13T05:50:49;98190.47;;;1.92;95.56
21760;BME280;11041;50.854;20.580;2023-03-13T05:53:15;98197.78;;;1.97;95.19
21760;BME280;11041;50.854;20.580;2023-03-13T05:55:42;98199.13;;;2.04;95.47
21760;BME280;11041;50.854;20.580;2023-03-13T05:58:09;98197.53;;;2.03;95.53
21760;BME280;11041;50.854;20.580;2023-03-13T06:00:35;98204.56;;;2.04;95.61
21760;BME280;11041;50.854;20.580;2023-03-13T06:03:02;98206.19;;;2.05;95.54
21760;BME280;11041;50.854;20.580;2023-03-13T06:05:28;98207.00;;;2.06;95.96
21760;BME280;11041;50.854;20.580;2023-03-13T06:07:55;98197.50;;;2.08;95.83
21760;BME280;11041;50.854;20.580;2023-03-13T06:10:21;98200.50;;;2.17;95.93
21760;BME280;11041;50.854;20.580;2023-03-13T06:12:55;98204.28;;;2.26;96.31
21760;BME280;11041;50.854;20.580;2023-03-13T06:15:22;98203.72;;;2.29;95.54
21760;BME280;11041;50.854;20.580;2023-03-13T06:17:49;98194.75;;;2.34;95.85
21760;BME280;11041;50.854;20.580;2023-03-13T06:20:16;98203.66;;;2.45;95.55
21760;BME280;11041;50.854;20.580;2023-03-13T06:22:42;98196.34;;;2.50;95.40
21760;BME280;11041;50.854;20.580;2023-03-13T06:25:10;98183.56;;;2.56;96.00
21760;BME280;11041;50.854;20.580;2023-03-13T06:27:37;98176.78;;;2.59;95.60
21760;BME280;11041;50.854;20.580;2023-03-13T06:30:04;98186.81;;;2.63;95.58
21760;BME280;11041;50.854;20.580;2023-03-13T06:32:30;98190.56;;;2.72;95.31
21760;BME280;11041;50.854;20.580;2023-03-13T06:34:57;98194.59;;;2.80;95.41
21760;BME280;11041;50.854;20.580;2023-03-13T06:37:23;98193.22;;;2.88;95.11
21760;BME280;11041;50.854;20.580;2023-03-13T06:39:50;98177.72;;;2.88;95.11
21760;BME280;11041;50.854;20.580;2023-03-13T06:42:16;98190.97;;;3.00;95.35
21760;BME280;11041;50.854;20.580;2023-03-13T06:44:42;98188.00;;;3.02;95.52
21760;BME280;11041;50.854;20.580;2023-03-13T06:47:09;98184.97;;;3.08;95.14
21760;BME280;11041;50.854;20.580;2023-03-13T06:49:36;98185.75;;;3.14;95.01
21760;BME280;11041;50.854;20.580;2023-03-13T06:52:02;98189.75;;;3.22;95.01
21760;BME280;11041;50.854;20.580;2023-03-13T06:54:29;98184.84;;;3.29;94.94
21760;BME280;11041;50.854;20.580;2023-03-13T06:56:56;98178.28;;;3.35;94.73
21760;BME280;11041;50.854;20.580;2023-03-13T06:59:22;98173.88;;;3.44;95.03
21760;BME280;11041;50.854;20.580;2023-03-13T07:01:49;98169.44;;;3.53;94.29
21760;BME280;11041;50.854;20.580;2023-03-13T07:04:15;98169.94;;;3.60;94.54
21760;BME280;11041;50.854;20.580;2023-03-13T07:06:42;98178.03;;;3.71;94.33
21760;BME280;11041;50.854;20.580;2023-03-13T07:09:09;98174.94;;;3.82;94.61
21760;BME280;11041;50.854;20.580;2023-03-13T07:11:36;98176.78;;;3.87;94.60
21760;BME280;11041;50.854;20.580;2023-03-13T07:14:03;98170.22;;;3.93;94.27
21760;BME280;11041;50.854;20.580;2023-03-13T07:16:29;98173.34;;;4.05;94.29
21760;BME280;11041;50.854;20.580;2023-03-13T07:18:56;98165.47;;;4.09;93.64
21760;BME280;11041;50.854;20.580;2023-03-13T07:21:23;98166.94;;;4.20;92.82
21760;BME280;11041;50.854;20.580;2023-03-13T07:23:49;98164.94;;;4.31;93.17
21760;BME280;11041;50.854;20.580;2023-03-13T07:26:16;98153.75;;;4.33;93.11
21760;BME280;11041;50.854;20.580;2023-03-13T07:28:43;98166.16;;;4.44;93.20
21760;BME280;11041;50.854;20.580;2023-03-13T07:31:20;98157.13;;;4.48;92.78
21760;BME280;11041;50.854;20.580;2023-03-13T07:33:49;98153.47;;;4.58;92.03
21760;BME280;11041;50.854;20.580;2023-03-13T07:36:21;98164.47;;;4.72;92.00
21760;BME280;11041;50.854;20.580;2023-03-13T07:38:49;98155.06;;;4.83;92.43
21760;BME280;11041;50.854;20.580;2023-03-13T07:41:17;98150.31;;;4.94;92.35
21760;BME280;11041;50.854;20.580;2023-03-13T07:43:45;98157.72;;;5.07;92.36
21760;BME280;11041;50.854;20.580;2023-03-13T07:46:15;98155.34;;;5.25;91.59
21760;BME280;11041;50.854;20.580;2023-03-13T07:48:47;98150.97;;;5.43;90.77
21760;BME280;11041;50.854;20.580;2023-03-13T07:51:19;98157.72;;;5.64;90.59
21760;BME280;11041;50.854;20.580;2023-03-13T07:53:46;98144.94;;;5.79;89.97
21760;BME280;11041;50.854;20.580;2023-03-13T07:56:20;98145.72;;;5.98;88.84
21760;BME280;11041;50.854;20.580;2023-03-13T07:58:48;98148.59;;;6.07;88.31
21760;BME280;11041;50.854;20.580;2023-03-13T08:01:21;98143.63;;;6.09;87.90
21760;BME280;11041;50.854;20.580;2023-03-13T08:03:53;98156.28;;;6.18;87.92
21760;BME280;11041;50.854;20.580;2023-03-13T08:06:25;98143.97;;;6.21;87.41
21760;BME280;11041;50.854;20.580;2023-03-13T08:08:56;98150.25;;;6.35;86.45
21760;BME280;11041;50.854;20.580;2023-03-13T08:11:26;98140.03;;;6.41;86.15
21760;BME280;11041;50.854;20.580;2023-03-13T08:13:55;98136.09;;;6.47;85.85
21760;BME280;11041;50.854;20.580;2023-03-13T08:16:32;98133.16;;;6.57;85.46
21760;BME280;11041;50.854;20.580;2023-03-13T08:19:02;98147.38;;;6.68;84.36
21760;BME280;11041;50.854;20.580;2023-03-13T08:21:35;98143.16;;;6.76;83.50
21760;BME280;11041;50.854;20.580;2023-03-13T08:24:06;98141.13;;;6.81;83.26
21760;BME280;11041;50.854;20.580;2023-03-13T08:26:36;98148.19;;;6.82;83.58
21760;BME280;11041;50.854;20.580;2023-03-13T08:29:07;98133.00;;;6.90;81.78
21760;BME280;11041;50.854;20.580;2023-03-13T08:31:46;98124.31;;;6.88;81.55
21760;BME280;11041;50.854;20.580;2023-03-13T08:34:16;98121.47;;;6.93;81.61
21760;BME280;11041;50.854;20.580;2023-03-13T08:36:43;98121.06;;;7.00;81.79
21760;BME280;11041;50.854;20.580;2023-03-13T08:39:19;98105.06;;;7.07;81.48
21760;BME280;11041;50.854;20.580;2023-03-13T08:41:46;98105.06;;;7.07;81.88
21760;BME280;11041;50.854;20.580;2023-03-13T08:44:16;98099.53;;;7.21;80.76
21760;BME280;11041;50.854;20.580;2023-03-13T08:46:43;98099.13;;;7.28;80.33
21760;BME280;11041;50.854;20.580;2023-03-13T08:49:11;98102.06;;;7.31;80.07
21760;BME280;11041;50.854;20.580;2023-03-13T08:51:38;98102.91;;;7.40;79.30
21760;BME280;11041;50.854;20.580;2023-03-13T08:54:06;98111.22;;;7.35;79.93
21760;BME280;11041;50.854;20.580;2023-03-13T08:56:32;98104.28;;;7.29;79.34
21760;BME280;11041;50.854;20.580;2023-03-13T08:59:02;98092.16;;;7.44;78.42
21760;BME280;11041;50.854;20.580;2023-03-13T09:01:32;98095.28;;;7.51;78.43
21760;BME280;11041;50.854;20.580;2023-03-13T09:04:00;98097.59;;;7.58;78.58
21760;BME280;11041;50.854;20.580;2023-03-13T09:06:26;98090.31;;;7.53;79.02
21760;BME280;11041;50.854;20.580;2023-03-13T09:08:56;98086.50;;;7.63;78.84
21760;BME280;11041;50.854;20.580;2023-03-13T09:11:23;98074.81;;;7.71;78.76
21760;BME280;11041;50.854;20.580;2023-03-13T09:13:51;98083.44;;;7.87;79.00
21760;BME280;11041;50.854;20.580;2023-03-13T09:16:21;98082.66;;;7.95;78.61
21760;BME280;11041;50.854;20.580;2023-03-13T09:18:50;98085.94;;;8.06;77.53
21760;BME280;11041;50.854;20.580;2023-03-13T09:21:28;98081.00;;;8.17;77.56
21760;BME280;11041;50.854;20.580;2023-03-13T09:23:56;98072.81;;;8.25;76.47
21760;BME280;11041;50.854;20.580;2023-03-13T09:26:24;98077.66;;;8.28;76.13
21760;BME280;11041;50.854;20.580;2023-03-13T09:28:51;98070.59;;;8.36;75.84
21760;BME280;11041;50.854;20.580;2023-03-13T09:31:22;98059.22;;;8.43;75.61
21760;BME280;11041;50.854;20.580;2023-03-13T09:33:50;98064.06;;;8.46;76.68
21760;BME280;11041;50.854;20.580;2023-03-13T09:36:18;98062.63;;;8.57;77.45
21760;BME280;11041;50.854;20.580;2023-03-13T09:38:46;98068.16;;;8.74;77.39
21760;BME280;11041;50.854;20.580;2023-03-13T09:45:33;98063.81;;;9.26;74.34
21760;BME280;11041;50.854;20.580;2023-03-13T09:48:39;98055.44;;;9.39;73.29
21760;BME280;11041;50.854;20.580;2023-03-13T09:51:38;98058.66;;;9.50;72.41
21760;BME280;11041;50.854;20.580;2023-03-13T09:56:52;98043.19;;;9.46;73.15
21760;BME280;11041;50.854;20.580;2023-03-13T10:02:06;98037.03;;;9.57;73.40
21760;BME280;11041;50.854;20.580;2023-03-13T10:04:48;98022.16;;;9.67;71.17
21760;BME280;11041;50.854;20.580;2023-03-13T10:07:17;98024.25;;;9.70;71.08
21760;BME280;11041;50.854;20.580;2023-03-13T10:09:46;98008.56;;;9.71;70.92
21760;BME280;11041;50.854;20.580;2023-03-13T10:12:19;98012.41;;;9.78;71.33
21760;BME280;11041;50.854;20.580;2023-03-13T10:17:50;98004.31;;;9.91;71.66
21760;BME280;11041;50.854;20.580;2023-03-13T10:20:25;98015.72;;;10.01;72.01
21760;BME280;11041;50.854;20.580;2023-03-13T10:23:06;98005.53;;;10.11;70.19
21760;BME280;11041;50.854;20.580;2023-03-13T10:25:36;98021.94;;;10.28;70.32
21760;BME280;11041;50.854;20.580;2023-03-13T10:28:16;98009.16;;;10.32;70.75
21760;BME280;11041;50.854;20.580;2023-03-13T10:30:53;97997.19;;;10.37;70.43
21760;BME280;11041;50.854;20.580;2023-03-13T10:33:28;97996.31;;;10.45;70.57
21760;BME280;11041;50.854;20.580;2023-03-13T10:36:11;97989.63;;;10.55;69.40
21760;BME280;11041;50.854;20.580;2023-03-13T10:38:56;97990.91;;;10.57;69.61
21760;BME280;11041;50.854;20.580;2023-03-13T10:41:28;97987.16;;;10.62;68.55
21760;BME280;11041;50.854;20.580;2023-03-13T10:44:04;97991.50;;;10.63;69.48
21760;BME280;11041;50.854;20.580;2023-03-13T10:46:34;97981.88;;;10.57;69.88
21760;BME280;11041;50.854;20.580;2023-03-13T10:49:23;97975.16;;;10.66;69.26
21760;BME280;11041;50.854;20.580;2023-03-13T10:51:54;97964.66;;;10.69;69.89
21760;BME280;11041;50.854;20.580;2023-03-13T10:54:26;97972.00;;;10.77;68.70
21760;BME280;11041;50.854;20.580;2023-03-13T10:59:47;97951.34;;;10.92;67.06
21760;BME280;11041;50.854;20.580;2023-03-13T11:04:51;97943.75;;;11.09;67.54
21760;BME280;11041;50.854;20.580;2023-03-13T11:07:35;97939.91;;;11.23;67.20
21760;BME280;11041;50.854;20.580;2023-03-13T11:10:28;97941.16;;;11.25;67.54
21760;BME280;11041;50.854;20.580;2023-03-13T11:13:02;97938.56;;;11.29;66.80
21760;BME280;11041;50.854;20.580;2023-03-13T11:15:41;97920.44;;;11.28;64.03
21760;BME280;11041;50.854;20.580;2023-03-13T11:18:23;97918.03;;;11.26;64.10
21760;BME280;11041;50.854;20.580;2023-03-13T11:20:57;97924.25;;;11.36;64.62
21760;BME280;11041;50.854;20.580;2023-03-13T11:23:39;97895.50;;;11.45;63.77
21760;BME280;11041;50.854;20.580;2023-03-13T11:26:33;97907.31;;;11.70;61.90
21760;BME280;11041;50.854;20.580;2023-03-13T11:37:55;97889.56;;;12.05;58.66
21760;BME280;11041;50.854;20.580;2023-03-13T11:47:15;97872.19;;;12.29;57.53
21760;BME280;11041;50.854;20.580;2023-03-13T11:53:03;97861.41;;;12.64;56.38
21760;BME280;11041;50.854;20.580;2023-03-13T11:55:56;97861.28;;;12.73;55.67
21760;BME280;11041;50.854;20.580;2023-03-13T12:01:26;97851.38;;;12.72;55.81
21760;BME280;11041;50.854;20.580;2023-03-13T12:04:04;97824.94;;;12.55;55.60
21760;BME280;11041;50.854;20.580;2023-03-13T12:07:01;97829.56;;;12.51;56.07
21760;BME280;11041;50.854;20.580;2023-03-13T12:09:53;97840.38;;;12.44;56.90
21760;BME280;11041;50.854;20.580;2023-03-13T12:21:26;97821.72;;;12.25;57.84
21760;BME280;11041;50.854;20.580;2023-03-13T12:24:41;97855.34;;;12.18;56.64
21760;BME280;11041;50.854;20.580;2023-03-13T12:27:24;97825.44;;;12.04;57.58
21760;BME280;11041;50.854;20.580;2023-03-13T12:30:18;97823.03;;;12.03;56.97
21760;BME280;11041;50.854;20.580;2023-03-13T12:33:20;97831.50;;;11.98;57.43
21760;BME280;11041;50.854;20.580;2023-03-13T12:39:21;97819.16;;;11.91;58.58
21760;BME280;11041;50.854;20.580;2023-03-13T12:44:58;97812.41;;;11.89;58.47
21760;BME280;11041;50.854;20.580;2023-03-13T12:47:50;97808.03;;;11.88;58.25
21760;BME280;11041;50.854;20.580;2023-03-13T12:51:00;97822.00;;;11.95;59.09
21760;BME280;11041;50.854;20.580;2023-03-13T12:59:22;97805.38;;;11.79;59.77
21760;BME280;11041;50.854;20.580;2023-03-13T13:01:55;97808.00;;;11.76;59.07
21760;BME280;11041;50.854;20.580;2023-03-13T13:04:29;97792.41;;;11.80;58.49
21760;BME280;11041;50.854;20.580;2023-03-13T13:07:06;97788.88;;;11.79;59.28
21760;BME280;11041;50.854;20.580;2023-03-13T13:12:45;97780.50;;;11.76;59.31
21760;BME280;11041;50.854;20.580;2023-03-13T13:15:31;97778.56;;;11.76;60.26
21760;BME280;11041;50.854;20.580;2023-03-13T13:18:24;97771.56;;;11.79;59.34
21760;BME280;11041;50.854;20.580;2023-03-13T13:23:38;97767.66;;;11.67;60.50
21760;BME280;11041;50.854;20.580;2023-03-13T13:29:00;97767.91;;;11.62;62.13
21760;BME280;11041;50.854;20.580;2023-03-13T13:36:59;97753.47;;;11.53;62.13
21760;BME280;11041;50.854;20.580;2023-03-13T13:39:53;97755.44;;;11.40;64.17
21760;BME280;11041;50.854;20.580;2023-03-13T13:42:37;97770.09;;;11.32;64.58
21760;BME280;11041;50.854;20.580;2023-03-13T13:47:48;97758.19;;;11.16;66.66
21760;BME280;11041;50.854;20.580;2023-03-13T13:50:21;97758.97;;;11.04;67.70
21760;BME280;11041;50.854;20.580;2023-03-13T13:52:49;97752.56;;;10.87;69.38
21760;BME280;11041;50.854;20.580;2023-03-13T13:58:18;97759.16;;;10.74;70.34
21760;BME280;11041;50.854;20.580;2023-03-13T14:01:02;97755.03;;;10.68;71.18
21760;BME280;11041;50.854;20.580;2023-03-13T14:03:39;97760.72;;;10.63;72.51
21760;BME280;11041;50.854;20.580;2023-03-13T14:06:22;97754.97;;;10.43;72.53
21760;BME280;11041;50.854;20.580;2023-03-13T14:08:58;97758.47;;;10.32;72.90
21760;BME280;11041;50.854;20.580;2023-03-13T14:11:37;97751.16;;;10.15;73.56
21760;BME280;11041;50.854;20.580;2023-03-13T14:14:23;97760.06;;;10.12;73.91
21760;BME280;11041;50.854;20.580;2023-03-13T14:16:56;97761.38;;;9.93;74.81
21760;BME280;11041;50.854;20.580;2023-03-13T14:19:40;97745.28;;;9.83;76.45
21760;BME280;11041;50.854;20.580;2023-03-13T14:22:10;97752.34;;;9.72;75.76
21760;BME280;11041;50.854;20.580;2023-03-13T14:24:40;97744.97;;;9.64;76.21
21760;BME280;11041;50.854;20.580;2023-03-13T14:27:17;97744.47;;;9.62;75.50
21760;BME280;11041;50.854;20.580;2023-03-13T14:30:07;97725.28;;;9.62;74.44
21760;BME280;11041;50.854;20.580;2023-03-13T14:32:35;97730.84;;;9.53;75.34
21760;BME280;11041;50.854;20.580;2023-03-13T14:35:04;97727.09;;;9.57;74.72
21760;BME280;11041;50.854;20.580;2023-03-13T14:37:43;97731.59;;;9.62;74.23
21760;BME280;11041;50.854;20.580;2023-03-13T14:40:25;97714.50;;;9.56;73.54
21760;BME280;11041;50.854;20.580;2023-03-13T14:42:59;97715.47;;;9.60;73.24
21760;BME280;11041;50.854;20.580;2023-03-13T14:45:31;97717.72;;;9.58;73.44